Terminal Aerodrome Forecast
Issued by NWS Springfield, MO

Home | Current Version | Previous Version | Text Only | Print | Product List | Glossary On
Versions: 1 2 3 4 5 6 7 8 9 10 11 12 13 14 15 16 17 18 19
000
FTUS43 KSGF 151100
TAFSGF
TAF
KSGF 151138Z 1512/1612 18012KT P6SM BKN090 OVC150
     FM151700 24012KT P6SM SCT050 BKN100
     FM152100 33012G17KT P6SM BKN040 OVC080
      TEMPO 1521/1601 -TSRA SCT025 OVC040CB
     FM160100 02006KT P6SM SCT015 OVC025
      TEMPO 1601/1605 -SHRA
     FM160500 01005KT 6SM BR OVC010=

USA.gov is the U.S. government's official web portal to all federal, state and local government web resources and services.